Time;durP1;ratioP1;P1;durP2;ratioP2;P2;SDS_P1;SDS_P2;PMS_P1;PMS_P2;Temp;Humidity;BMP_temperature;BMP_pressure;BME280_temperature;BME280_humidity;BME280_pressure;Samples;Min_cycle;Max_cycle;Signal;HPM_P1;HPM_P2
2019/11/19 00:01:03;;;;;;;7.1;5.8;;;;;;;2.32;87.95996;936.7651;;;;
2019/11/19 00:03:34;;;;;;;7.8;5.7;;;;;;;2.39;87.89648;936.775;;;;
2019/11/19 00:06:06;;;;;;;7.9;5.6;;;;;;;2.35;87.93262;936.6987;;;;
2019/11/19 00:08:30;;;;;;;6.8;5.5;;;;;;;2.34;87.99805;936.7087;;;;
2019/11/19 00:10:54;;;;;;;7.3;6;;;;;;;2.23;88.5127;936.707;;;;
2019/11/19 00:13:23;;;;;;;6.6;5.9;;;;;;;2.32;88.52051;936.7605;;;;
2019/11/19 00:15:47;;;;;;;7.4;5.9;;;;;;;2.38;88.54297;936.7029;;;;
2019/11/19 00:18:22;;;;;;;6.6;5.9;;;;;;;2.43;88.18457;936.6894;;;;
2019/11/19 00:20:46;;;;;;;7.8;6.2;;;;;;;2.6;88.12988;936.59;;;;
2019/11/19 00:23:05;;;;;;;6.2;5.6;;;;;;;2.67;87.21484;936.627;;;;
2019/11/19 00:25:37;;;;;;;7.4;6.6;;;;;;;2.67;87.81836;936.5074;;;;
2019/11/19 00:28:00;;;;;;;8.6;7.4;;;;;;;2.88;86.93262;936.5955;;;;
2019/11/19 00:30:24;;;;;;;8.5;6.1;;;;;;;2.83;86.77539;936.673;;;;
2019/11/19 00:33:08;;;;;;;7.1;6.3;;;;;;;2.8;87.12891;936.6769;;;;
2019/11/19 00:35:23;;;;;;;7.8;5.7;;;;;;;2.84;86.6875;936.7466;;;;
2019/11/19 00:37:58;;;;;;;6.1;5.4;;;;;;;2.77;86.75098;936.735;;;;
2019/11/19 00:40:23;;;;;;;7.5;5.9;;;;;;;2.73;87.14941;936.6906;;;;
2019/11/19 00:42:57;;;;;;;7.6;5.3;;;;;;;2.86;86.62598;936.6766;;;;
2019/11/19 00:45:23;;;;;;;8.5;6.4;;;;;;;2.97;86.10742;936.7675;;;;
2019/11/19 00:47:52;;;;;;;6.7;6;;;;;;;2.98;86.13379;936.7679;;;;
2019/11/19 00:50:18;;;;;;;6.3;5.6;;;;;;;3.03;85.70508;936.7283;;;;
2019/11/19 00:52:49;;;;;;;6.4;5.1;;;;;;;2.94;85.73242;936.7375;;;;
2019/11/19 00:56:15;;;;;;;8.3;6.2;;;;;;;2.62;87.06934;936.7517;;;;
2019/11/19 00:58:27;;;;;;;9.8;6.3;;;;;;;2.56;87.53809;936.7712;;;;
2019/11/19 01:01:00;;;;;;;7.1;6.2;;;;;;;2.56;87.33691;936.7452;;;;
2019/11/19 01:03:30;;;;;;;7.2;5.8;;;;;;;2.4;87.5498;936.7234;;;;
2019/11/19 01:05:57;;;;;;;7.2;5.8;;;;;;;2.31;88.0459;936.7438;;;;
2019/11/19 01:08:26;;;;;;;7.5;6;;;;;;;2.28;88.0625;936.7072;;;;
2019/11/19 01:10:55;;;;;;;9.5;6.7;;;;;;;2.12;88.82617;936.6569;;;;
2019/11/19 01:13:17;;;;;;;8;6.2;;;;;;;2.02;89.33105;936.6326;;;;
2019/11/19 01:15:48;;;;;;;6.8;5.9;;;;;;;2.19;89.16406;936.6376;;;;
2019/11/19 01:18:19;;;;;;;7.2;6.1;;;;;;;2.33;88.27539;936.6251;;;;
2019/11/19 01:20:46;;;;;;;8.2;6;;;;;;;2.1;88.87598;936.6256;;;;
2019/11/19 01:23:10;;;;;;;8.3;6.3;;;;;;;2.13;89.19531;936.6728;;;;
2019/11/19 01:25:48;;;;;;;8.1;6.1;;;;;;;2.21;88.6543;936.6261;;;;
2019/11/19 01:28:18;;;;;;;6.8;5.8;;;;;;;2.22;88.44141;936.7353;;;;
2019/11/19 01:30:41;;;;;;;7.2;5.8;;;;;;;2.21;88.32813;936.794;;;;
2019/11/19 01:33:20;;;;;;;7.4;5.7;;;;;;;2.1;88.73047;936.7706;;;;
2019/11/19 01:35:37;;;;;;;6.8;6.1;;;;;;;2.02;89.39844;936.6703;;;;
2019/11/19 01:38:12;;;;;;;7.6;6;;;;;;;2.11;89.24707;936.7382;;;;
2019/11/19 01:40:46;;;;;;;6.8;6.1;;;;;;;2.06;89.01367;936.7394;;;;
2019/11/19 01:43:14;;;;;;;7;6.2;;;;;;;2.05;89.0459;936.7823;;;;
2019/11/19 01:45:38;;;;;;;7.2;6.4;;;;;;;1.99;89.88281;936.8111;;;;
2019/11/19 01:48:12;;;;;;;8;6.4;;;;;;;1.97;90.14746;936.7452;;;;
2019/11/19 01:50:37;;;;;;;7.3;6.3;;;;;;;1.99;90.11816;936.7653;;;;
2019/11/19 01:53:15;;;;;;;7.3;6.2;;;;;;;1.99;90.25488;936.8135;;;;
2019/11/19 01:55:37;;;;;;;7;5.8;;;;;;;2.16;89.61523;936.7525;;;;
2019/11/19 01:58:00;;;;;;;9;6.6;;;;;;;2.09;89.4248;936.6598;;;;
2019/11/19 02:00:26;;;;;;;7.9;6.8;;;;;;;2.03;90.0918;936.633;;;;
2019/11/19 02:02:53;;;;;;;10.2;6.7;;;;;;;2.06;89.80859;936.6617;;;;
2019/11/19 02:05:21;;;;;;;8.9;7.4;;;;;;;2.03;89.90234;936.6747;;;;
2019/11/19 02:07:48;;;;;;;9.6;7.5;;;;;;;2.1;89.95117;936.6199;;;;
2019/11/19 02:10:15;;;;;;;8.6;7;;;;;;;2.15;90.08594;936.6029;;;;
2019/11/19 02:12:45;;;;;;;8.3;7.2;;;;;;;2.15;89.73828;936.5825;;;;
2019/11/19 02:15:12;;;;;;;7.5;6.7;;;;;;;2.25;89.80469;936.5842;;;;
2019/11/19 02:18:17;;;;;;;7.6;5.9;;;;;;;2.33;89.27246;936.6006;;;;
2019/11/19 02:20:36;;;;;;;7.4;6.6;;;;;;;2.23;89.68652;936.5883;;;;
2019/11/19 02:23:03;;;;;;;7;6.3;;;;;;;2.27;89.69629;936.5144;;;;
2019/11/19 02:26:20;;;;;;;6.8;6.1;;;;;;;2.39;89.06152;936.4356;;;;
2019/11/19 02:29:16;;;;;;;8.4;6.4;;;;;;;2.36;89.05273;936.3527;;;;
2019/11/19 02:31:48;;;;;;;7.6;6.3;;;;;;;2.41;88.57129;936.3611;;;;
2019/11/19 02:34:23;;;;;;;7.8;6.1;;;;;;;2.34;88.77051;936.3536;;;;
2019/11/19 02:36:47;;;;;;;7.5;5.9;;;;;;;2.43;88.34082;936.3351;;;;
2019/11/19 02:39:19;;;;;;;7;6.1;;;;;;;2.47;88.1582;936.3453;;;;
2019/11/19 02:41:52;;;;;;;8;6;;;;;;;2.47;87.93457;936.3208;;;;
2019/11/19 02:44:37;;;;;;;6.8;5.9;;;;;;;2.42;88.12598;936.2767;;;;
2019/11/19 02:46:56;;;;;;;7.2;6;;;;;;;2.59;87.66895;936.2805;;;;
2019/11/19 02:49:20;;;;;;;6.6;5.7;;;;;;;2.56;87.24707;936.2494;;;;
2019/11/19 02:51:38;;;;;;;7.2;6.3;;;;;;;2.2;88.71777;936.1775;;;;
2019/11/19 02:54:02;;;;;;;6.8;6.1;;;;;;;2.16;89.14551;936.176;;;;
2019/11/19 02:56:29;;;;;;;7.7;6.4;;;;;;;2.17;89.32813;936.1647;;;;
2019/11/19 02:59:00;;;;;;;7.8;7;;;;;;;2.1;89.6709;936.0775;;;;
2019/11/19 03:01:25;;;;;;;7.3;6.6;;;;;;;2.2;89.61523;936.024;;;;
2019/11/19 03:03:55;;;;;;;7.9;6.7;;;;;;;2.47;88.26855;936.033;;;;
2019/11/19 03:06:21;;;;;;;7.4;6.7;;;;;;;2.48;87.99219;936.057;;;;
2019/11/19 03:08:49;;;;;;;8.7;6.5;;;;;;;2.25;89.05371;936.0455;;;;
2019/11/19 03:11:15;;;;;;;10;7.2;;;;;;;2.31;89.09863;936.0226;;;;
2019/11/19 03:13:48;;;;;;;7.9;6.7;;;;;;;2.35;88.64941;936.0036;;;;
2019/11/19 03:16:12;;;;;;;8.5;6.8;;;;;;;2.25;88.70703;935.9521;;;;
2019/11/19 03:18:39;;;;;;;9.3;7.4;;;;;;;2.11;89.48242;935.9731;;;;
2019/11/19 03:21:03;;;;;;;8.9;7.2;;;;;;;2.05;89.97461;936.0237;;;;
2019/11/19 03:23:35;;;;;;;8.2;7.4;;;;;;;2.01;90.18945;936.0503;;;;
2019/11/19 03:26:00;;;;;;;9.3;7.6;;;;;;;2.02;90.15918;936.0391;;;;
2019/11/19 03:28:29;;;;;;;7.8;7;;;;;;;2.06;89.68359;935.9783;;;;
2019/11/19 03:30:54;;;;;;;8.8;6.8;;;;;;;2.05;89.3457;936.073;;;;
2019/11/19 03:33:17;;;;;;;7.6;6.8;;;;;;;2.06;88.94531;936.0098;;;;
2019/11/19 03:35:52;;;;;;;9.5;7.6;;;;;;;1.75;90.2002;936.0195;;;;
2019/11/19 03:38:18;;;;;;;8.6;7.2;;;;;;;1.65;90.87305;935.9811;;;;
2019/11/19 03:40:47;;;;;;;8.4;7.5;;;;;;;1.72;90.82129;935.9609;;;;
2019/11/19 03:43:16;;;;;;;8.6;7.4;;;;;;;1.75;90.35938;935.96;;;;
2019/11/19 03:48:34;;;;;;;8;7.2;;;;;;;1.65;90.67383;935.968;;;;
2019/11/19 03:50:50;;;;;;;9.5;7.3;;;;;;;1.61;91.15723;935.9885;;;;
2019/11/19 03:53:27;;;;;;;8.4;7.4;;;;;;;1.68;90.9248;936.0467;;;;
2019/11/19 03:55:53;;;;;;;8.7;7.1;;;;;;;1.61;91.06836;936.0276;;;;
2019/11/19 03:58:25;;;;;;;8.2;7.3;;;;;;;1.68;90.99023;936.082;;;;
2019/11/19 04:03:08;;;;;;;9;7.5;;;;;;;1.91;89.45215;935.8995;;;;
2019/11/19 04:05:38;;;;;;;7.3;6.5;;;;;;;2.02;88.55859;935.8703;;;;
2019/11/19 04:08:07;;;;;;;9.3;7.3;;;;;;;1.95;88.63281;935.8714;;;;
2019/11/19 04:10:43;;;;;;;8.3;7;;;;;;;1.96;88.59961;935.7859;;;;
2019/11/19 04:13:01;;;;;;;8.3;7.1;;;;;;;1.84;88.57715;935.8444;;;;
2019/11/19 04:15:28;;;;;;;7.9;6.8;;;;;;;1.81;88.7041;935.9484;;;;
2019/11/19 04:17:54;;;;;;;8.7;7.1;;;;;;;1.72;88.91992;935.899;;;;
2019/11/19 04:20:27;;;;;;;7.8;7;;;;;;;1.67;89.32227;935.9168;;;;
2019/11/19 04:23:00;;;;;;;8.3;7.3;;;;;;;1.54;90.10059;935.9515;;;;
2019/11/19 04:25:27;;;;;;;9;7.6;;;;;;;1.48;90.72461;935.8886;;;;
2019/11/19 04:27:53;;;;;;;9.2;7.8;;;;;;;1.6;90.44727;935.8831;;;;
2019/11/19 04:30:18;;;;;;;8.2;7.4;;;;;;;1.68;89.82715;935.9235;;;;
2019/11/19 04:32:48;;;;;;;8.1;7.3;;;;;;;1.77;89.31152;935.8695;;;;
2019/11/19 04:35:14;;;;;;;7.9;6.6;;;;;;;1.64;89.48438;935.9394;;;;
2019/11/19 04:37:41;;;;;;;8.3;7.2;;;;;;;1.58;89.89746;935.9797;;;;
2019/11/19 04:40:06;;;;;;;7.8;6.7;;;;;;;1.58;89.91797;936.004;;;;
2019/11/19 04:42:36;;;;;;;8.4;7;;;;;;;1.65;89.53223;935.9712;;;;
2019/11/19 04:45:02;;;;;;;7.8;6.8;;;;;;;1.73;89.16797;935.9929;;;;
2019/11/19 04:47:26;;;;;;;8.3;7.3;;;;;;;1.81;88.68164;935.9694;;;;
2019/11/19 04:49:56;;;;;;;8;7.2;;;;;;;1.87;88.39258;935.9749;;;;
2019/11/19 04:52:26;;;;;;;8.7;7.7;;;;;;;1.93;87.84473;935.9356;;;;
2019/11/19 04:54:56;;;;;;;8.5;7.6;;;;;;;1.86;87.97461;935.9808;;;;
2019/11/19 04:57:22;;;;;;;8.2;7.3;;;;;;;1.92;87.61816;936.0639;;;;
2019/11/19 04:59:49;;;;;;;10;8.7;;;;;;;1.98;87.10352;936.0623;;;;
2019/11/19 05:02:16;;;;;;;9.4;8.3;;;;;;;1.97;87.37207;936.061;;;;
2019/11/19 05:04:43;;;;;;;8.4;7.6;;;;;;;1.94;88.03613;935.928;;;;
2019/11/19 05:07:14;;;;;;;8.7;7.8;;;;;;;1.96;88.14063;936.0255;;;;
2019/11/19 05:09:35;;;;;;;8.8;7.4;;;;;;;1.94;87.9043;935.9769;;;;
2019/11/19 05:12:02;;;;;;;8.1;7.3;;;;;;;1.97;87.73047;935.941;;;;
2019/11/19 05:14:27;;;;;;;10.1;8.6;;;;;;;2.02;87.38184;935.9549;;;;
2019/11/19 05:16:57;;;;;;;13.5;10.1;;;;;;;2.03;87.59668;935.9272;;;;
2019/11/19 05:19:27;;;;;;;11.8;9.1;;;;;;;2.15;87.23047;935.9308;;;;
2019/11/19 05:21:51;;;;;;;7.9;6.6;;;;;;;2.17;86.58301;936.0609;;;;
2019/11/19 05:24:17;;;;;;;7.1;6.4;;;;;;;2.12;86.29395;935.9373;;;;
2019/11/19 05:26:42;;;;;;;8.1;6.5;;;;;;;2.06;86.70605;935.9304;;;;
2019/11/19 05:29:09;;;;;;;8.2;7.3;;;;;;;1.93;87.36328;935.9639;;;;
2019/11/19 05:31:53;;;;;;;8.5;7.7;;;;;;;1.9;87.6709;935.918;;;;
2019/11/19 05:34:10;;;;;;;10.1;7.8;;;;;;;1.98;87.43945;935.9634;;;;
2019/11/19 05:36:34;;;;;;;8.9;7.6;;;;;;;1.97;87.49512;935.9663;;;;
2019/11/19 05:39:30;;;;;;;8.5;7.4;;;;;;;2.04;87.23047;935.9942;;;;
2019/11/19 05:42:09;;;;;;;9.3;7.8;;;;;;;2.05;86.69336;936.0117;;;;
2019/11/19 05:44:46;;;;;;;8.7;7.3;;;;;;;1.99;86.96191;936.0667;;;;
2019/11/19 05:47:29;;;;;;;8.7;6.9;;;;;;;1.75;87.75098;936.0737;;;;
2019/11/19 05:50:02;;;;;;;7.7;6.9;;;;;;;1.69;88.2207;936.0195;;;;
2019/11/19 05:52:24;;;;;;;7.5;6.4;;;;;;;1.45;88.99902;936.0093;;;;
2019/11/19 05:54:56;;;;;;;6.9;6.2;;;;;;;1.44;89.43066;936.0298;;;;
2019/11/19 05:57:25;;;;;;;7.3;6.3;;;;;;;1.5;89.53418;936.034;;;;
2019/11/19 05:59:56;;;;;;;7.5;6.6;;;;;;;1.56;89.60352;936.0536;;;;
2019/11/19 06:02:18;;;;;;;7.5;6.5;;;;;;;1.6;89.34082;936.0754;;;;
2019/11/19 06:04:51;;;;;;;7.4;6.2;;;;;;;1.61;89.09863;936.0786;;;;
2019/11/19 06:07:22;;;;;;;7.4;6.6;;;;;;;1.74;88.41992;936.0575;;;;
2019/11/19 06:09:57;;;;;;;7.5;6.7;;;;;;;1.78;87.9043;936.0891;;;;
2019/11/19 06:12:31;;;;;;;7;5.9;;;;;;;1.91;87.35938;936.1092;;;;
2019/11/19 06:15:08;;;;;;;9.3;6.6;;;;;;;1.88;87.66504;936.2061;;;;
2019/11/19 06:17:41;;;;;;;9.4;7.8;;;;;;;1.88;87.93359;936.1135;;;;
2019/11/19 06:20:18;;;;;;;12;8.3;;;;;;;1.95;87.47852;936.113;;;;
2019/11/19 06:22:44;;;;;;;15.4;11;;;;;;;1.97;87.34961;936.103;;;;
2019/11/19 06:25:20;;;;;;;14.5;10.8;;;;;;;1.98;87.1709;936.0167;;;;
2019/11/19 06:27:46;;;;;;;17.9;12.9;;;;;;;2.04;87.24023;936.115;;;;
2019/11/19 06:32:57;;;;;;;12.2;9;;;;;;;2.04;86.97266;936.123;;;;
2019/11/19 06:35:28;;;;;;;12.7;10.5;;;;;;;2.02;86.7998;936.0545;;;;
2019/11/19 06:37:55;;;;;;;12.3;10.8;;;;;;;2;86.67285;936.1266;;;;
2019/11/19 06:40:30;;;;;;;12.9;10.5;;;;;;;2.01;86.5625;936.1571;;;;
2019/11/19 06:43:05;;;;;;;15.8;12;;;;;;;2.07;86.50879;936.0858;;;;
2019/11/19 06:45:41;;;;;;;11.9;10.1;;;;;;;2.04;86.74707;936.1205;;;;
2019/11/19 06:48:07;;;;;;;10.6;9.2;;;;;;;2.12;86.34961;936.0881;;;;
2019/11/19 06:50:39;;;;;;;19.9;14.9;;;;;;;2.17;86.2041;936.0831;;;;
2019/11/19 06:53:05;;;;;;;12.6;10.6;;;;;;;2.19;85.54688;936.149;;;;
2019/11/19 06:55:44;;;;;;;12.9;10.1;;;;;;;2.26;85.21484;936.1158;;;;
2019/11/19 06:58:17;;;;;;;11.7;10.5;;;;;;;2.33;85.06055;936.1105;;;;
2019/11/19 07:00:39;;;;;;;15.7;12.9;;;;;;;2.41;84.79492;936.1011;;;;
2019/11/19 07:03:10;;;;;;;13;11.2;;;;;;;2.45;84.60254;936.1135;;;;
2019/11/19 07:05:35;;;;;;;14.6;11.2;;;;;;;2.37;84.83301;936.0811;;;;
2019/11/19 07:08:08;;;;;;;14.3;11;;;;;;;2.35;85.13184;936.0066;;;;
2019/11/19 07:10:33;;;;;;;8.2;6.7;;;;;;;2.4;84.80664;936.1346;;;;
2019/11/19 07:13:05;;;;;;;7.3;5.5;;;;;;;2.55;84.74609;936.1625;;;;
2019/11/19 07:15:33;;;;;;;6.8;5.7;;;;;;;2.66;84.63281;936.1534;;;;
2019/11/19 07:17:59;;;;;;;7.9;6.6;;;;;;;2.93;83.2627;936.127;;;;
2019/11/19 07:20:31;;;;;;;12.1;9.2;;;;;;;3.03;82.72266;936.1323;;;;
2019/11/19 07:23:19;;;;;;;11.5;6.7;;;;;;;3.16;82.45508;936.2121;;;;
2019/11/19 07:25:29;;;;;;;10.2;7.1;;;;;;;3.31;81.58398;936.2448;;;;
2019/11/19 07:27:54;;;;;;;12.8;7.8;;;;;;;3.53;81.02051;936.2712;;;;
2019/11/19 07:30:30;;;;;;;19.4;12.5;;;;;;;3.85;80.25;936.2528;;;;
2019/11/19 07:32:59;;;;;;;13;9.4;;;;;;;4.55;76.94727;936.2611;;;;
2019/11/19 07:35:37;;;;;;;10.5;6.1;;;;;;;5.48;73.40234;936.1752;;;;
2019/11/19 07:37:53;;;;;;;8.8;5;;;;;;;6.15;70.06055;936.1583;;;;
2019/11/19 07:40:22;;;;;;;7.6;4.3;;;;;;;7.06;66.44824;936.1523;;;;
2019/11/19 07:43:02;;;;;;;6.6;3.8;;;;;;;7.12;65.70996;936.1931;;;;
2019/11/19 07:45:20;;;;;;;7.7;3.9;;;;;;;7.85;63.07617;936.1436;;;;
2019/11/19 07:48:17;;;;;;;8.4;3.7;;;;;;;8.36;61.66211;936.1838;;;;
2019/11/19 07:50:17;;;;;;;6.5;4.4;;;;;;;9.29;60.03125;936.1301;;;;
2019/11/19 07:52:42;;;;;;;6.5;4;;;;;;;10.09;56.37891;936.0511;;;;
2019/11/19 07:55:16;;;;;;;6.6;4.2;;;;;;;10.32;54.67383;936.1487;;;;
2019/11/19 07:57:43;;;;;;;6.9;4.4;;;;;;;9.5;56.55176;936.1564;;;;
2019/11/19 08:00:10;;;;;;;5.9;4.8;;;;;;;9.73;56.93555;936.135;;;;
2019/11/19 08:02:42;;;;;;;9.2;5.2;;;;;;;9.99;56.05957;936.1828;;;;
2019/11/19 08:05:05;;;;;;;5.9;4.5;;;;;;;9.7;56.86328;936.0934;;;;
2019/11/19 08:07:47;;;;;;;9.5;4.9;;;;;;;9.38;57.98242;936.0754;;;;
2019/11/19 08:10:12;;;;;;;11.1;5.7;;;;;;;9.7;57.13672;936.052;;;;
2019/11/19 08:12:41;;;;;;;5.5;3.8;;;;;;;10.24;56.19336;936.1164;;;;
2019/11/19 08:15:06;;;;;;;6.2;4.2;;;;;;;10.64;53.4248;936.1203;;;;
2019/11/19 08:17:35;;;;;;;8;4.7;;;;;;;11.7;51.34668;936.0569;;;;
2019/11/19 08:20:24;;;;;;;6.9;3.4;;;;;;;12.69;49.77637;936.1724;;;;
2019/11/19 08:22:57;;;;;;;5.7;2.9;;;;;;;12.02;48.98926;936.1641;;;;
2019/11/19 08:25:26;;;;;;;5;2.7;;;;;;;11.39;49.8457;936.1601;;;;
2019/11/19 08:27:52;;;;;;;6.9;3.4;;;;;;;11.84;50.15918;936.1461;;;;
2019/11/19 08:30:23;;;;;;;7.9;4.1;;;;;;;11.48;50.51855;936.1606;;;;
2019/11/19 08:32:58;;;;;;;5.4;3.9;;;;;;;10.57;52.27344;936.1563;;;;
2019/11/19 08:35:29;;;;;;;7.4;3.9;;;;;;;10.51;53.6377;936.1456;;;;
2019/11/19 08:38:26;;;;;;;5.2;2.5;;;;;;;9.79;55.04102;936.2341;;;;
2019/11/19 08:40:58;;;;;;;4;2.5;;;;;;;9.54;57.63965;936.2537;;;;
2019/11/19 08:43:28;;;;;;;10.2;4;;;;;;;9.18;59.37891;936.2192;;;;
2019/11/19 08:46:21;;;;;;;12;6.1;;;;;;;8.86;60.60938;936.2676;;;;
2019/11/19 08:48:34;;;;;;;13.3;6.2;;;;;;;8.57;61.05664;936.2363;;;;
2019/11/19 08:50:59;;;;;;;10.5;4.4;;;;;;;7.52;64.29883;936.3055;;;;
2019/11/19 08:53:41;;;;;;;11.6;4.8;;;;;;;6.94;67.13184;936.2764;;;;
2019/11/19 08:56:16;;;;;;;7.2;3.8;;;;;;;6.68;68.04199;936.2653;;;;
2019/11/19 08:59:18;;;;;;;6.5;3.1;;;;;;;6.07;69.62891;936.2593;;;;
2019/11/19 09:01:09;;;;;;;6.5;3;;;;;;;5.91;71.30664;936.2629;;;;
2019/11/19 09:03:48;;;;;;;7.4;3.1;;;;;;;5.98;71.04785;936.2758;;;;
2019/11/19 09:06:17;;;;;;;11.6;3.5;;;;;;;6.08;71.14355;936.2253;;;;
2019/11/19 09:08:56;;;;;;;6.1;3.3;;;;;;;5.9;70.85547;936.3166;;;;
2019/11/19 09:11:22;;;;;;;8.7;4.4;;;;;;;5.83;71.55469;936.3329;;;;
2019/11/19 09:13:53;;;;;;;11.6;6.2;;;;;;;5.95;71.86816;936.3565;;;;
2019/11/19 09:16:17;;;;;;;11.2;4.2;;;;;;;5.95;71.65332;936.377;;;;
2019/11/19 09:21:25;;;;;;;7.9;2.6;;;;;;;5.56;73.0332;936.3904;;;;
2019/11/19 09:24:23;;;;;;;14.3;6.2;;;;;;;5.27;74.13379;936.442;;;;
2019/11/19 09:26:44;;;;;;;8.1;3.5;;;;;;;5.47;73.93164;936.4244;;;;
2019/11/19 09:29:11;;;;;;;9.7;5.7;;;;;;;5.87;73.83105;936.3439;;;;
2019/11/19 09:31:55;;;;;;;12.3;5.9;;;;;;;6.28;71.30176;936.3994;;;;
2019/11/19 09:34:19;;;;;;;18.8;11.2;;;;;;;6.57;70.32129;936.372;;;;
2019/11/19 09:36:51;;;;;;;7;3.5;;;;;;;6.53;70.33789;936.3;;;;
2019/11/19 09:39:22;;;;;;;8;3.6;;;;;;;6.63;69.86621;936.2935;;;;
2019/11/19 09:41:52;;;;;;;14.1;8.3;;;;;;;6.5;72.17578;936.3049;;;;
2019/11/19 09:44:17;;;;;;;10.4;6.1;;;;;;;6.42;72.83008;936.4257;;;;
2019/11/19 09:46:50;;;;;;;7.9;5.4;;;;;;;6.29;73.04297;936.4817;;;;
2019/11/19 09:49:14;;;;;;;5.5;4;;;;;;;6.18;71.90723;936.472;;;;
2019/11/19 09:51:50;;;;;;;6.6;3.7;;;;;;;6.28;71.67578;936.5045;;;;
2019/11/19 09:54:09;;;;;;;7.5;3.4;;;;;;;6.51;71.10254;936.4941;;;;
2019/11/19 09:56:33;;;;;;;7.9;3.9;;;;;;;6.67;70.67676;936.5318;;;;
2019/11/19 09:59:01;;;;;;;7.5;3.7;;;;;;;6.73;71.12891;936.4785;;;;
2019/11/19 10:01:46;;;;;;;6;3.4;;;;;;;6.96;68.6875;936.4091;;;;
2019/11/19 10:04:02;;;;;;;4.8;3.3;;;;;;;7.15;69.13672;936.3205;;;;
2019/11/19 10:06:34;;;;;;;5;3.1;;;;;;;7.48;67.23926;936.2573;;;;
2019/11/19 10:09:06;;;;;;;5.4;3.3;;;;;;;7.41;68.33887;936.2972;;;;
2019/11/19 10:11:41;;;;;;;4.6;2.9;;;;;;;7.58;67.2207;936.1741;;;;
2019/11/19 10:14:13;;;;;;;3.2;2.9;;;;;;;7.62;66.1377;936.1362;;;;
2019/11/19 10:16:37;;;;;;;4;3.3;;;;;;;7.43;67.04004;936.1075;;;;
2019/11/19 10:19:10;;;;;;;4.5;3.2;;;;;;;7.37;67.51758;936.0696;;;;
2019/11/19 10:21:44;;;;;;;4.9;3.4;;;;;;;7.23;67.59473;936.0972;;;;
2019/11/19 10:24:11;;;;;;;5.9;3.9;;;;;;;7.13;68.39746;936.0477;;;;
2019/11/19 10:27:17;;;;;;;6.2;3.8;;;;;;;7.31;67.17871;936.0385;;;;
2019/11/19 10:30:08;;;;;;;4.5;3.4;;;;;;;7.63;67.30762;936.0493;;;;
2019/11/19 10:32:33;;;;;;;4.9;3.5;;;;;;;7.73;67.04102;935.9924;;;;
2019/11/19 10:35:19;;;;;;;7.4;3.9;;;;;;;7.62;67.91895;935.9747;;;;
2019/11/19 10:38:20;;;;;;;4.8;3.5;;;;;;;7.92;66.99121;936.0464;;;;
2019/11/19 10:40:44;;;;;;;4.3;3.3;;;;;;;8.04;66.89551;935.9645;;;;
2019/11/19 10:43:38;;;;;;;6.3;3.6;;;;;;;8.19;65.4873;936.0467;;;;
2019/11/19 10:45:56;;;;;;;5.8;3.7;;;;;;;8.18;65.19043;936.0363;;;;
2019/11/19 10:48:24;;;;;;;4.6;3.3;;;;;;;8.14;65.79883;935.9715;;;;
2019/11/19 10:50:52;;;;;;;4.9;3.8;;;;;;;8.12;66.62305;936.0845;;;;
2019/11/19 10:53:19;;;;;;;5.4;3.6;;;;;;;8.13;66.11523;936.0586;;;;
2019/11/19 10:55:49;;;;;;;5.2;3.8;;;;;;;8.16;65.34668;936.0106;;;;
2019/11/19 10:58:24;;;;;;;5.4;3.9;;;;;;;8.43;65.76367;935.9313;;;;
2019/11/19 11:00:48;;;;;;;4.8;3.8;;;;;;;8.15;65.73145;935.8551;;;;
2019/11/19 11:03:20;;;;;;;6;4;;;;;;;8.14;66.38867;935.8193;;;;
2019/11/19 11:05:44;;;;;;;5.1;3.9;;;;;;;8.3;65.38086;935.894;;;;
2019/11/19 11:08:24;;;;;;;6.1;4.1;;;;;;;8.55;64.84961;935.8653;;;;
2019/11/19 11:10:57;;;;;;;5.2;4.5;;;;;;;8.7;64.65625;935.7533;;;;
2019/11/19 11:13:30;;;;;;;4.9;3.9;;;;;;;8.71;64.35059;935.6899;;;;
2019/11/19 11:15:57;;;;;;;5.8;4.7;;;;;;;8.84;63.9043;935.6465;;;;
2019/11/19 11:18:28;;;;;;;5.6;4.3;;;;;;;8.92;63.37109;935.6188;;;;
2019/11/19 11:20:51;;;;;;;5.6;4.6;;;;;;;8.97;64.82227;935.6408;;;;
2019/11/19 11:23:20;;;;;;;5.6;4.3;;;;;;;8.99;64.16504;935.6005;;;;
2019/11/19 11:25:45;;;;;;;5.4;4.3;;;;;;;9.1;64.71582;935.5535;;;;
2019/11/19 11:28:13;;;;;;;6.6;4.5;;;;;;;9.29;61.88672;935.5136;;;;
2019/11/19 11:30:39;;;;;;;6;4.3;;;;;;;10.12;59.40527;935.3711;;;;
2019/11/19 11:33:05;;;;;;;6.7;4.6;;;;;;;11.71;53.72754;935.4395;;;;
2019/11/19 11:35:34;;;;;;;7.3;4.4;;;;;;;12.48;51.43848;935.3986;;;;
2019/11/19 11:37:57;;;;;;;5.3;4.5;;;;;;;12.3;51.7959;935.4194;;;;
2019/11/19 11:40:22;;;;;;;5.2;4.1;;;;;;;12.68;49.86719;935.356;;;;
2019/11/19 11:42:50;;;;;;;7.3;4.5;;;;;;;12.55;50.25293;935.4024;;;;
2019/11/19 11:45:15;;;;;;;5.4;4.8;;;;;;;12.22;51.5332;935.3494;;;;
2019/11/19 11:47:41;;;;;;;5.1;4.5;;;;;;;11.88;53.33691;935.4026;;;;
2019/11/19 11:50:19;;;;;;;5;3.9;;;;;;;12.5;52.50781;935.452;;;;
2019/11/19 11:52:45;;;;;;;4.8;4;;;;;;;14.38;47.89648;935.3505;;;;
2019/11/19 11:55:16;;;;;;;6.1;3.8;;;;;;;16.45;41.65332;935.3127;;;;
2019/11/19 12:00:18;;;;;;;5.7;3.4;;;;;;;19.86;34.59473;935.3105;;;;
2019/11/19 12:02:45;;;;;;;3.8;3.4;;;;;;;20.73;33.56445;935.2858;;;;
2019/11/19 12:05:16;;;;;;;4.2;3.7;;;;;;;20.07;33.64258;935.3195;;;;
2019/11/19 12:07:41;;;;;;;4.7;4;;;;;;;19.57;35.0498;935.3356;;;;
2019/11/19 12:10:08;;;;;;;5.3;3.6;;;;;;;19.94;34.23828;935.267;;;;
2019/11/19 12:12:34;;;;;;;4.3;3.9;;;;;;;20.31;33.73145;935.2335;;;;
2019/11/19 12:15:13;;;;;;;5;3.8;;;;;;;19.64;34.93848;935.1781;;;;
2019/11/19 12:17:34;;;;;;;5.2;4;;;;;;;18.67;36.85156;935.204;;;;
2019/11/19 12:20:04;;;;;;;6.4;4.5;;;;;;;18.62;36.55566;935.2103;;;;
2019/11/19 12:22:34;;;;;;;6.4;4;;;;;;;19.52;35.23242;935.278;;;;
2019/11/19 12:24:59;;;;;;;4.9;4.3;;;;;;;17.67;38.00879;935.2096;;;;
2019/11/19 12:27:36;;;;;;;4.9;4.3;;;;;;;17.47;38.8623;935.1824;;;;
2019/11/19 12:30:20;;;;;;;4.8;4.3;;;;;;;17.41;38.99609;935.1422;;;;
2019/11/19 12:32:51;;;;;;;4.9;4.1;;;;;;;19.36;35.24316;935.1014;;;;
2019/11/19 12:37:57;;;;;;;5.9;4;;;;;;;19.92;34.9375;935.1308;;;;
2019/11/19 12:40:31;;;;;;;4.9;4.1;;;;;;;20.89;32.875;935.0589;;;;
2019/11/19 12:43:04;;;;;;;4.9;4.3;;;;;;;20.71;32.53418;935.0876;;;;
2019/11/19 12:45:26;;;;;;;4.9;4;;;;;;;19.96;34.06543;935.0358;;;;
2019/11/19 12:47:50;;;;;;;5.8;4.3;;;;;;;18.28;36.92285;934.9536;;;;
2019/11/19 12:50:22;;;;;;;6;4.4;;;;;;;19.23;35.59375;935.09;;;;
2019/11/19 12:52:56;;;;;;;5.7;4.9;;;;;;;18.55;37.35254;935.0428;;;;
2019/11/19 12:55:27;;;;;;;5.2;4.3;;;;;;;17.91;38.2041;935.0305;;;;
2019/11/19 12:58:03;;;;;;;5.9;4.5;;;;;;;17.28;38.96094;935.0782;;;;
2019/11/19 13:00:30;;;;;;;6.8;5;;;;;;;17.89;38.69043;935.106;;;;
2019/11/19 13:03:23;;;;;;;5.6;4.5;;;;;;;18.59;36.47168;935.028;;;;
2019/11/19 13:05:48;;;;;;;6.4;4.6;;;;;;;18.12;36.81641;935.1226;;;;
2019/11/19 13:08:12;;;;;;;5.9;5.1;;;;;;;18.99;35.51563;935.1161;;;;
2019/11/19 13:10:50;;;;;;;6.4;4.8;;;;;;;18.3;36.75;935.1063;;;;
2019/11/19 13:13:14;;;;;;;6.4;4.8;;;;;;;18.13;37.30566;935.2148;;;;
2019/11/19 13:15:50;;;;;;;7.2;5;;;;;;;17.51;38.5293;935.2941;;;;
2019/11/19 13:18:28;;;;;;;5.5;4.9;;;;;;;17.75;38.15527;935.2653;;;;
2019/11/19 13:21:19;;;;;;;5.2;4.7;;;;;;;17.96;37.2207;935.2833;;;;
2019/11/19 13:23:36;;;;;;;5.4;4.9;;;;;;;17.08;39.99805;935.3044;;;;
2019/11/19 13:26:10;;;;;;;6.7;5.2;;;;;;;17.48;38.93359;935.2472;;;;
2019/11/19 13:28:35;;;;;;;7.5;5.5;;;;;;;16.03;41.6377;935.3281;;;;
2019/11/19 13:30:59;;;;;;;6.8;6.1;;;;;;;14.96;44.18848;935.2611;;;;
2019/11/19 13:33:38;;;;;;;6.5;5.6;;;;;;;15.45;42.93262;935.2531;;;;
2019/11/19 13:36:06;;;;;;;5.7;5.2;;;;;;;15.96;41.96582;935.3056;;;;
2019/11/19 13:38:47;;;;;;;6.6;5.3;;;;;;;16.28;41.4873;935.2134;;;;
2019/11/19 13:41:08;;;;;;;6.3;5.7;;;;;;;16.23;41.4707;935.2327;;;;
2019/11/19 13:43:44;;;;;;;8.2;5.6;;;;;;;17.11;39.71094;935.2216;;;;
2019/11/19 13:46:28;;;;;;;7.2;5.7;;;;;;;16.43;41.29297;935.2938;;;;
2019/11/19 13:48:57;;;;;;;6.2;5.6;;;;;;;17;40.19922;935.2872;;;;
2019/11/19 13:51:25;;;;;;;6.7;5.3;;;;;;;17.23;39.56055;935.3095;;;;
2019/11/19 13:54:05;;;;;;;6.8;5.8;;;;;;;16.34;41.5625;935.2606;;;;
2019/11/19 13:56:18;;;;;;;6.6;5.6;;;;;;;16.74;40.52344;935.2838;;;;
2019/11/19 13:58:43;;;;;;;6.7;6.1;;;;;;;15.41;42.99805;935.3464;;;;
2019/11/19 14:01:11;;;;;;;7.9;6.7;;;;;;;14.26;45.86816;935.3764;;;;
2019/11/19 14:03:38;;;;;;;7.2;6.2;;;;;;;14.15;46.35156;935.3803;;;;
2019/11/19 14:06:06;;;;;;;7.1;6.4;;;;;;;14.4;45.2959;935.3078;;;;
2019/11/19 14:08:38;;;;;;;8.5;6.6;;;;;;;14.72;44.42969;935.4543;;;;
2019/11/19 14:11:02;;;;;;;7.2;6.5;;;;;;;15.01;43.4209;935.4088;;;;
2019/11/19 14:13:35;;;;;;;7.9;6.7;;;;;;;14.82;44.03613;935.3918;;;;
2019/11/19 14:16:06;;;;;;;8.4;7.2;;;;;;;14.34;45.27637;935.4326;;;;
2019/11/19 14:19:24;;;;;;;10.1;7.3;;;;;;;14.26;45.90234;935.39;;;;
2019/11/19 14:21:43;;;;;;;11.3;7.2;;;;;;;14.09;45.89648;935.3529;;;;
2019/11/19 14:24:10;;;;;;;9.8;7.1;;;;;;;13.82;46.39648;935.3525;;;;
2019/11/19 14:26:43;;;;;;;9.8;7.2;;;;;;;13.42;47.83594;935.3803;;;;
2019/11/19 14:29:13;;;;;;;8.8;7.8;;;;;;;12.21;50.87891;935.4029;;;;
2019/11/19 14:31:49;;;;;;;9.5;7.7;;;;;;;12.23;51.46582;935.4252;;;;
2019/11/19 14:34:23;;;;;;;10.1;8.2;;;;;;;11.61;52.75293;935.4216;;;;
2019/11/19 14:39:22;;;;;;;11.9;9.6;;;;;;;9.43;59.75488;935.4819;;;;
2019/11/19 14:41:50;;;;;;;12.3;10;;;;;;;9.15;61.44727;935.5747;;;;
2019/11/19 14:44:28;;;;;;;12.4;11;;;;;;;8.9;62.71875;935.6829;;;;
2019/11/19 14:47:05;;;;;;;12.4;11.1;;;;;;;8.63;64.07813;935.7327;;;;
2019/11/19 14:49:36;;;;;;;13.6;11.3;;;;;;;8.41;64.86328;935.7537;;;;
2019/11/19 14:52:08;;;;;;;14.8;11.7;;;;;;;8.39;65.11035;935.8289;;;;
2019/11/19 14:54:40;;;;;;;15.8;12.4;;;;;;;8.17;66.17773;935.8792;;;;
2019/11/19 14:57:12;;;;;;;14.1;12.2;;;;;;;7.95;67.29004;935.8027;;;;
2019/11/19 14:59:40;;;;;;;18;12.7;;;;;;;7.68;68.13281;935.8426;;;;
2019/11/19 15:02:13;;;;;;;14.9;12.4;;;;;;;7.57;68.42188;935.8469;;;;
2019/11/19 15:04:48;;;;;;;13.3;11.9;;;;;;;7.52;68.95703;935.9188;;;;
2019/11/19 15:07:18;;;;;;;15.7;12.6;;;;;;;7.33;70.09375;935.905;;;;
2019/11/19 15:09:45;;;;;;;14.9;12.1;;;;;;;7.19;70.59277;935.9419;;;;